Terminal Aerodrome Forecast
Issued by NWS Omaha/Valley, NE

Home | Current Version | Previous Version | Text Only | Print | Product List | Glossary Off
Versions: 1 2 3 4 5 6 7 8 9 10 11 12 13 14 15 16 17 18 19 20 21 22 23 24 25 26 27 28 29 30 31

000
FTUS43 KOAX 171720
TAFOFK
TAF
KOFK 171720Z 1718/1818 VRB03KT P6SM SCT120
     FM180300 17005KT P6SM BKN150 PROB30 1808/1812 VRB10KT 6SM -TSRA
      BKN040CB
     FM181200 23006KT P6SM BKN035
      TEMPO 1815/1818 31007KT SCT080=

USA.gov is the U.S. government's official web portal to all federal, state and local government web resources and services.